Time;durP1;ratioP1;P1;durP2;ratioP2;P2;SDS_P1;SDS_P2;PMS_P1;PMS_P2;Temp;Humidity;BMP_temperature;BMP_pressure;BME280_temperature;BME280_humidity;BME280_pressure;Samples;Min_cycle;Max_cycle;Signal;HPM_P1;HPM_P2
2023/05/13 00:01:25;;;;;;;6.25;3.40;;;12.80;99.90;;;;;;5033899;28;20044;-48
2023/05/13 00:03:51;;;;;;;6.88;3.90;;;12.70;99.90;;;;;;5054052;28;20040;-50
2023/05/13 00:06:17;;;;;;;4.85;3.33;;;12.70;99.90;;;;;;5063953;28;20056;-50
2023/05/13 00:08:43;;;;;;;4.88;3.55;;;12.60;99.90;;;;;;5057447;28;20065;-48
2023/05/13 00:11:09;;;;;;;5.30;3.13;;;12.80;99.90;;;;;;5050875;28;20081;-47
2023/05/13 00:13:35;;;;;;;6.78;3.70;;;12.80;99.90;;;;;;5046168;28;20131;-49
2023/05/13 00:16:01;;;;;;;4.25;2.90;;;12.70;99.90;;;;;;5050951;28;20045;-47
2023/05/13 00:18:27;;;;;;;4.25;2.85;;;12.60;99.90;;;;;;5049098;28;20498;-52
2023/05/13 00:20:53;;;;;;;5.35;3.10;;;12.50;99.90;;;;;;5055273;28;20079;-48
2023/05/13 00:23:19;;;;;;;4.47;2.95;;;12.40;99.90;;;;;;5069712;28;20043;-51
2023/05/13 00:25:45;;;;;;;5.28;3.65;;;12.40;99.90;;;;;;5075368;28;20376;-50
2023/05/13 00:28:13;;;;;;;6.43;3.63;;;12.40;99.90;;;;;;5073364;28;20028;-49
2023/05/13 00:30:43;;;;;;;5.40;3.20;;;12.40;99.90;;;;;;5073137;28;20119;-49
2023/05/13 00:33:09;;;;;;;6.75;3.55;;;12.50;99.90;;;;;;5070050;28;20392;-48
2023/05/13 00:35:34;;;;;;;4.95;3.28;;;12.70;99.90;;;;;;5071412;28;20028;-48
2023/05/13 00:38:00;;;;;;;4.65;3.25;;;12.60;99.90;;;;;;5074293;28;20039;-52
2023/05/13 00:40:26;;;;;;;4.13;3.08;;;12.70;99.90;;;;;;5070478;28;20498;-51
2023/05/13 00:42:53;;;;;;;4.82;3.33;;;12.70;99.90;;;;;;5055337;28;20370;-49
2023/05/13 00:45:19;;;;;;;5.38;3.33;;;12.60;99.90;;;;;;5070128;28;20052;-46
2023/05/13 00:47:45;;;;;;;6.97;3.80;;;12.60;99.90;;;;;;5074587;28;20033;-50
2023/05/13 00:50:12;;;;;;;4.55;3.22;;;12.80;99.90;;;;;;5077954;28;20495;-50
2023/05/13 00:52:39;;;;;;;3.95;3.20;;;13.00;99.90;;;;;;5066443;28;20059;-48
2023/05/13 00:55:06;;;;;;;6.18;3.40;;;13.10;99.90;;;;;;5053412;28;20452;-49
2023/05/13 00:57:32;;;;;;;5.03;2.90;;;13.00;99.90;;;;;;5033599;28;20086;-48
2023/05/13 00:59:59;;;;;;;5.95;3.47;;;13.10;99.90;;;;;;5071692;28;20427;-47
2023/05/13 01:02:36;;;;;;;4.93;3.13;;;12.80;99.90;;;;;;5055210;28;20067;-49
2023/05/13 01:05:08;;;;;;;5.88;3.08;;;12.90;99.90;;;;;;5077978;28;20037;-49
2023/05/13 01:07:37;;;;;;;;;;;12.80;99.90;;;;;;5070771;28;20025;-50
2023/05/13 01:10:10;;;;;;;6.55;3.45;;;12.60;99.90;;;;;;5070846;28;19905;-52
2023/05/13 01:12:39;;;;;;;9.23;4.10;;;12.60;99.90;;;;;;5070349;28;20032;-48
2023/05/13 01:15:26;;;;;;;6.90;3.55;;;12.70;99.90;;;;;;5069661;28;20110;-48
2023/05/13 01:18:18;;;;;;;4.28;3.05;;;12.50;99.90;;;;;;5070170;28;20035;-51
2023/05/13 01:20:45;;;;;;;4.53;3.28;;;12.60;99.90;;;;;;5066249;28;20048;-49
2023/05/13 01:23:11;;;;;;;6.68;3.22;;;12.60;99.90;;;;;;5074421;28;20036;-50
2023/05/13 01:25:39;;;;;;;4.05;2.85;;;12.50;99.90;;;;;;5069911;28;20105;-48
2023/05/13 01:28:06;;;;;;;4.80;2.85;;;12.40;99.90;;;;;;5070185;28;20135;-48
2023/05/13 01:30:33;;;;;;;3.75;2.80;;;12.40;99.90;;;;;;5068069;28;20085;-52
2023/05/13 01:32:59;;;;;;;4.63;2.95;;;12.30;99.90;;;;;;5071184;28;20119;-51
2023/05/13 01:35:27;;;;;;;6.60;3.15;;;12.30;99.90;;;;;;5071329;28;20027;-50
2023/05/13 01:37:55;;;;;;;4.55;3.05;;;12.30;99.90;;;;;;5070829;28;20043;-52
2023/05/13 01:40:21;;;;;;;4.40;2.60;;;12.40;99.90;;;;;;5073701;28;20432;-47
2023/05/13 01:42:47;;;;;;;3.47;2.30;;;12.40;99.90;;;;;;5069006;28;20067;-48
2023/05/13 01:45:13;;;;;;;3.88;2.65;;;12.30;99.90;;;;;;5068756;28;20080;-53
2023/05/13 01:47:39;;;;;;;4.63;2.67;;;12.40;99.90;;;;;;5083305;28;20090;-51
2023/05/13 01:50:05;;;;;;;3.88;3.03;;;12.30;99.90;;;;;;5055343;28;20037;-49
2023/05/13 01:52:31;;;;;;;5.05;2.63;;;12.40;99.90;;;;;;5046395;28;20040;-47
2023/05/13 01:54:57;;;;;;;4.40;3.05;;;12.30;99.90;;;;;;5073540;28;20031;-50
2023/05/13 01:57:22;;;;;;;4.80;3.20;;;12.30;99.90;;;;;;5068868;28;20044;-47
2023/05/13 01:59:48;;;;;;;3.05;2.25;;;12.20;99.90;;;;;;5070611;28;20056;-49
2023/05/13 02:02:14;;;;;;;4.30;2.85;;;12.10;99.90;;;;;;5047424;28;20029;-51
2023/05/13 02:04:40;;;;;;;4.85;2.80;;;12.10;99.90;;;;;;5068269;28;20112;-47
2023/05/13 02:07:06;;;;;;;3.30;2.42;;;12.10;99.90;;;;;;5073277;28;20037;-48
2023/05/13 02:09:31;;;;;;;3.30;2.30;;;12.00;99.90;;;;;;5071357;28;20476;-50
2023/05/13 02:11:57;;;;;;;3.85;2.47;;;12.00;99.90;;;;;;5070859;28;20055;-49
2023/05/13 02:14:23;;;;;;;3.83;2.47;;;12.00;99.90;;;;;;5071810;28;20024;-47
2023/05/13 02:16:49;;;;;;;4.82;2.60;;;12.10;99.90;;;;;;5070452;28;20064;-51
2023/05/13 02:19:14;;;;;;;5.22;3.00;;;12.00;99.90;;;;;;5060708;28;20112;-48
2023/05/13 02:21:42;;;;;;;3.85;2.72;;;12.20;99.90;;;;;;5085272;28;20044;-51
2023/05/13 02:24:08;;;;;;;7.00;2.70;;;12.30;99.90;;;;;;5071765;28;20364;-48
2023/05/13 02:26:33;;;;;;;6.22;2.80;;;12.40;99.90;;;;;;5072366;28;20024;-51
2023/05/13 02:28:59;;;;;;;5.18;3.45;;;12.60;99.90;;;;;;5070705;28;20020;-50
2023/05/13 02:31:25;;;;;;;3.72;3.00;;;12.80;99.90;;;;;;5071914;28;20460;-50
2023/05/13 02:33:51;;;;;;;3.65;2.50;;;12.90;99.90;;;;;;5072495;28;20078;-50
2023/05/13 02:36:16;;;;;;;5.15;3.25;;;12.90;99.90;;;;;;5067174;28;20076;-49
2023/05/13 02:38:42;;;;;;;4.25;2.88;;;12.80;99.90;;;;;;5067640;28;20031;-51
2023/05/13 02:41:08;;;;;;;4.15;2.83;;;12.70;99.90;;;;;;5051301;28;20036;-50
2023/05/13 02:43:34;;;;;;;4.10;2.40;;;12.60;99.90;;;;;;5064315;28;20029;-51
2023/05/13 02:46:01;;;;;;;4.15;2.60;;;12.60;99.90;;;;;;5067613;28;20044;-49
2023/05/13 02:48:27;;;;;;;5.80;3.22;;;12.40;99.90;;;;;;5068062;28;20388;-53
2023/05/13 02:50:52;;;;;;;4.13;2.47;;;12.50;99.90;;;;;;5069777;28;20045;-52
2023/05/13 02:53:18;;;;;;;4.18;2.80;;;12.60;99.90;;;;;;5071247;28;20068;-48
2023/05/13 02:55:44;;;;;;;3.72;2.90;;;12.60;99.90;;;;;;5072781;28;20036;-50
2023/05/13 02:58:10;;;;;;;5.43;3.08;;;12.50;99.90;;;;;;5070420;28;20044;-49
2023/05/13 03:00:35;;;;;;;4.20;2.83;;;12.50;99.90;;;;;;5067268;28;20040;-50
2023/05/13 03:03:01;;;;;;;3.78;2.67;;;12.60;99.90;;;;;;5069209;28;20041;-53
2023/05/13 03:05:27;;;;;;;4.95;3.25;;;12.70;99.90;;;;;;5069366;28;20061;-47
2023/05/13 03:07:53;;;;;;;6.40;3.10;;;12.60;99.90;;;;;;5069928;28;20481;-51
2023/05/13 03:10:18;;;;;;;6.35;3.47;;;12.40;99.90;;;;;;5072621;28;20372;-49
2023/05/13 03:12:44;;;;;;;3.67;2.78;;;12.30;99.90;;;;;;5070232;28;20041;-52
2023/05/13 03:15:11;;;;;;;4.13;2.50;;;12.40;99.90;;;;;;5069008;28;20043;-49
2023/05/13 03:17:37;;;;;;;6.90;3.28;;;12.20;99.90;;;;;;5070619;28;20077;-46
2023/05/13 03:20:03;;;;;;;5.00;2.80;;;12.20;99.90;;;;;;5071971;28;20111;-47
2023/05/13 03:22:29;;;;;;;4.07;2.80;;;12.20;99.90;;;;;;5016741;28;20052;-50
2023/05/13 03:24:56;;;;;;;5.43;2.70;;;12.00;99.90;;;;;;5071695;28;20025;-46
2023/05/13 03:27:21;;;;;;;6.55;3.13;;;11.90;99.90;;;;;;5070813;28;20048;-48
2023/05/13 03:29:47;;;;;;;5.60;3.10;;;12.00;99.90;;;;;;5070190;28;20150;-53
2023/05/13 03:32:13;;;;;;;6.78;2.90;;;12.00;99.90;;;;;;5071959;28;20051;-50
2023/05/13 03:34:38;;;;;;;4.57;3.08;;;12.00;99.90;;;;;;5052914;28;20048;-48
2023/05/13 03:37:04;;;;;;;5.45;3.10;;;11.90;99.90;;;;;;5058605;28;20052;-50
2023/05/13 03:39:30;;;;;;;4.85;2.88;;;12.00;99.90;;;;;;5057762;28;20120;-50
2023/05/13 03:41:56;;;;;;;3.60;2.45;;;11.90;99.90;;;;;;5071612;28;20024;-51
2023/05/13 03:44:21;;;;;;;5.90;2.97;;;11.90;99.90;;;;;;5069459;28;20464;-50
2023/05/13 03:46:47;;;;;;;5.65;2.95;;;11.90;99.90;;;;;;5069584;28;20454;-47
2023/05/13 03:49:13;;;;;;;5.10;3.35;;;11.80;99.90;;;;;;5068746;28;20036;-50
2023/05/13 03:51:39;;;;;;;4.78;3.17;;;11.90;99.90;;;;;;5047487;28;20048;-50
2023/05/13 03:54:04;;;;;;;5.65;2.90;;;11.90;99.90;;;;;;5072993;28;20040;-48
2023/05/13 03:56:30;;;;;;;4.57;3.10;;;11.80;99.90;;;;;;5071251;28;20044;-49
2023/05/13 03:58:56;;;;;;;4.68;3.00;;;12.00;99.90;;;;;;5073671;28;20052;-47
2023/05/13 04:01:22;;;;;;;5.53;3.13;;;12.00;99.90;;;;;;5073415;28;20063;-48
2023/05/13 04:03:49;;;;;;;5.28;3.25;;;11.70;99.90;;;;;;5073517;28;20028;-51
2023/05/13 04:06:14;;;;;;;5.95;3.03;;;11.60;99.90;;;;;;5057016;28;20511;-48
2023/05/13 04:08:40;;;;;;;4.85;3.53;;;11.60;99.90;;;;;;5076362;28;20075;-49
2023/05/13 04:11:06;;;;;;;5.50;3.03;;;11.70;99.90;;;;;;5072049;28;20467;-49
2023/05/13 04:13:34;;;;;;;7.28;3.35;;;12.00;99.90;;;;;;5074622;28;20044;-51
2023/05/13 04:16:00;;;;;;;5.82;3.35;;;12.20;99.90;;;;;;5071187;28;20391;-52
2023/05/13 04:18:26;;;;;;;4.60;3.13;;;12.30;99.90;;;;;;5073639;28;20036;-47
2023/05/13 04:20:51;;;;;;;4.53;2.78;;;12.50;99.90;;;;;;5073346;28;20493;-50
2023/05/13 04:23:17;;;;;;;4.90;3.40;;;12.30;99.90;;;;;;5070165;28;20033;-47
2023/05/13 04:25:50;;;;;;;4.10;2.83;;;12.50;99.90;;;;;;5075247;28;20041;-52
2023/05/13 04:28:16;;;;;;;8.13;3.33;;;12.60;99.90;;;;;;5072437;28;20033;-51
2023/05/13 04:30:42;;;;;;;4.40;3.13;;;12.60;99.90;;;;;;5073571;28;20074;-49
2023/05/13 04:33:08;;;;;;;4.97;3.50;;;12.60;99.90;;;;;;5073204;28;20117;-47
2023/05/13 04:35:34;;;;;;;8.85;4.22;;;12.50;99.90;;;;;;5026524;28;20040;-48
2023/05/13 04:37:59;;;;;;;5.90;3.75;;;12.40;99.90;;;;;;5070007;28;20378;-51
2023/05/13 04:40:25;;;;;;;5.15;3.30;;;12.30;99.90;;;;;;5074918;28;20949;-50
2023/05/13 04:42:53;;;;;;;8.93;3.92;;;12.00;99.90;;;;;;5070891;28;20115;-50
2023/05/13 04:45:20;;;;;;;5.80;4.53;;;12.00;99.90;;;;;;5071915;28;20028;-52
2023/05/13 04:47:46;;;;;;;5.25;4.20;;;12.00;99.90;;;;;;5073225;28;20028;-50
2023/05/13 04:50:11;;;;;;;4.65;3.70;;;12.10;99.90;;;;;;5074818;28;20086;-51
2023/05/13 04:52:37;;;;;;;4.97;3.42;;;12.00;99.90;;;;;;5072033;28;20033;-48
2023/05/13 04:55:03;;;;;;;4.72;3.28;;;12.10;99.90;;;;;;5071393;28;20036;-49
2023/05/13 04:57:29;;;;;;;5.53;3.45;;;12.30;99.90;;;;;;5064179;28;20079;-49
2023/05/13 04:59:55;;;;;;;5.82;3.22;;;12.30;99.90;;;;;;5067189;28;20056;-49
2023/05/13 05:02:21;;;;;;;4.80;3.67;;;12.30;99.90;;;;;;5054482;28;20064;-49
2023/05/13 05:04:48;;;;;;;3.85;2.80;;;12.50;99.90;;;;;;5072115;28;20033;-49
2023/05/13 05:07:14;;;;;;;6.95;3.50;;;12.60;99.90;;;;;;5066435;28;20025;-48
2023/05/13 05:09:39;;;;;;;5.05;3.92;;;12.60;99.90;;;;;;5071562;28;20044;-49
2023/05/13 05:12:05;;;;;;;4.80;2.30;;;12.80;99.90;;;;;;5068734;28;20047;-49
2023/05/13 05:14:31;;;;;;;5.93;3.38;;;12.70;99.90;;;;;;5069477;28;20472;-47
2023/05/13 05:16:57;;;;;;;4.10;3.00;;;12.70;99.90;;;;;;5050876;28;20056;-50
2023/05/13 05:19:23;;;;;;;4.00;3.03;;;12.80;99.90;;;;;;5036734;28;20040;-52
2023/05/13 05:21:52;;;;;;;4.35;2.90;;;12.70;99.90;;;;;;5071287;28;20051;-49
2023/05/13 05:24:18;;;;;;;4.88;3.38;;;12.70;99.90;;;;;;5077180;28;20437;-47
2023/05/13 05:26:44;;;;;;;3.25;2.78;;;12.80;99.90;;;;;;5068129;28;20475;-51
2023/05/13 05:29:09;;;;;;;4.65;3.20;;;12.70;99.90;;;;;;5072918;28;20024;-51
2023/05/13 05:31:35;;;;;;;4.00;3.30;;;12.90;99.90;;;;;;5073042;28;20028;-51
2023/05/13 05:34:01;;;;;;;4.85;2.97;;;13.00;99.90;;;;;;5069064;28;20036;-50
2023/05/13 05:36:30;;;;;;;6.20;3.22;;;13.10;99.90;;;;;;5064261;28;20091;-48
2023/05/13 05:38:56;;;;;;;3.58;2.70;;;13.20;99.90;;;;;;5071330;28;20476;-47
2023/05/13 05:41:22;;;;;;;4.07;3.17;;;13.20;99.90;;;;;;5068470;28;20102;-47
2023/05/13 05:43:47;;;;;;;6.80;3.10;;;13.20;99.90;;;;;;5023601;28;20526;-51
2023/05/13 05:46:13;;;;;;;3.33;2.10;;;13.50;99.90;;;;;;5054075;28;20118;-48
2023/05/13 05:48:39;;;;;;;4.45;2.90;;;13.40;99.90;;;;;;5066541;28;20040;-48
2023/05/13 05:51:05;;;;;;;4.65;3.25;;;13.40;99.90;;;;;;5072217;28;20032;-48
2023/05/13 05:53:31;;;;;;;4.00;2.38;;;13.60;99.90;;;;;;5070531;28;20064;-52
2023/05/13 05:55:57;;;;;;;4.57;2.90;;;13.60;99.90;;;;;;5073288;28;20040;-52
2023/05/13 05:58:23;;;;;;;4.35;2.63;;;13.70;99.90;;;;;;5072107;28;20086;-50
2023/05/13 06:00:48;;;;;;;4.32;2.15;;;13.80;99.90;;;;;;5053980;28;20460;-47
2023/05/13 06:03:14;;;;;;;5.22;3.17;;;13.50;99.90;;;;;;5071245;28;20111;-52
2023/05/13 06:05:40;;;;;;;3.47;2.08;;;13.50;99.90;;;;;;5068552;28;20024;-49
2023/05/13 06:08:06;;;;;;;4.25;2.80;;;13.50;99.90;;;;;;5067887;28;20041;-49
2023/05/13 06:10:31;;;;;;;4.85;3.10;;;13.50;99.90;;;;;;5064613;28;20044;-49
2023/05/13 06:12:57;;;;;;;4.78;3.38;;;13.60;99.90;;;;;;5070360;28;20040;-48
2023/05/13 06:15:23;;;;;;;5.03;3.53;;;14.10;99.90;;;;;;5070810;28;20036;-51
2023/05/13 06:17:49;;;;;;;4.07;3.10;;;;;;;;;;5071366;28;20075;-49
2023/05/13 06:20:15;;;;;;;4.25;2.70;;;14.60;99.90;;;;;;5072050;28;20067;-51
2023/05/13 06:22:40;;;;;;;4.35;3.53;;;14.60;99.90;;;;;;5070208;28;20064;-51
2023/05/13 06:25:07;;;;;;;6.35;4.05;;;;;;;;;;5069560;28;20045;-48
2023/05/13 06:27:33;;;;;;;6.05;4.03;;;;;;;;;;5081075;28;20112;-49
2023/05/13 06:29:59;;;;;;;5.18;3.20;;;15.30;99.90;;;;;;5067749;28;20495;-48
2023/05/13 06:32:25;;;;;;;5.03;3.05;;;15.10;99.90;;;;;;5053755;28;20040;-51
2023/05/13 06:34:51;;;;;;;6.40;2.90;;;15.10;99.90;;;;;;5071168;28;20514;-48
2023/05/13 06:37:17;;;;;;;4.47;3.03;;;15.20;99.90;;;;;;5070876;28;20040;-51
2023/05/13 06:39:43;;;;;;;5.90;3.65;;;15.30;99.90;;;;;;5069699;28;20063;-52
2023/05/13 06:42:08;;;;;;;5.40;3.97;;;15.50;99.90;;;;;;5071107;28;20067;-49
2023/05/13 06:44:34;;;;;;;5.57;3.50;;;;;;;;;;5067709;28;20024;-48
2023/05/13 06:47:02;;;;;;;10.20;6.93;;;;;;;;;;5068828;28;20045;-51
2023/05/13 06:49:28;;;;;;;6.63;4.70;;;;;;;;;;5052598;28;20036;-50
2023/05/13 06:51:54;;;;;;;5.45;3.38;;;;;;;;;;5069326;28;20024;-48
2023/05/13 06:54:20;;;;;;;4.95;3.28;;;;;;;;;;5070665;28;20112;-49
2023/05/13 06:56:46;;;;;;;4.45;3.20;;;;;;;;;;5054885;28;20392;-51
2023/05/13 06:59:12;;;;;;;4.50;3.30;;;;;;;;;;5069325;28;20193;-48
2023/05/13 07:01:38;;;;;;;6.82;3.35;;;16.60;99.90;;;;;;5067797;28;20032;-48
2023/05/13 07:04:04;;;;;;;4.88;3.38;;;;;;;;;;5069226;28;20041;-48
2023/05/13 07:06:30;;;;;;;4.57;3.58;;;17.10;99.90;;;;;;5069755;28;20028;-50
2023/05/13 07:08:56;;;;;;;4.13;3.08;;;17.30;99.90;;;;;;5069406;28;20029;-49
2023/05/13 07:11:21;;;;;;;4.93;3.10;;;17.80;99.90;;;;;;5071089;28;20041;-49
2023/05/13 07:13:48;;;;;;;5.35;3.25;;;;;;;;;;5069569;28;20501;-50
2023/05/13 07:16:14;;;;;;;5.82;4.03;;;;;;;;;;5071878;28;20357;-51
2023/05/13 07:18:40;;;;;;;5.97;3.65;;;;;;;;;;5068873;28;20032;-48
2023/05/13 07:21:06;;;;;;;4.60;3.60;;;;;;;;;;5068953;28;20070;-48
2023/05/13 07:23:32;;;;;;;4.10;3.10;;;;;;;;;;5069068;28;20032;-51
2023/05/13 07:25:58;;;;;;;4.95;3.42;;;;;;;;;;5071773;28;21279;-51
2023/05/13 07:28:24;;;;;;;7.13;4.57;;;18.40;99.90;;;;;;5071130;28;20082;-48
2023/05/13 07:30:52;;;;;;;5.32;3.65;;;18.50;99.90;;;;;;5074273;28;20032;-50
2023/05/13 07:33:18;;;;;;;7.82;7.13;;;18.70;99.90;;;;;;5072277;28;20035;-51
2023/05/13 07:35:44;;;;;;;4.65;2.85;;;;;;;;;;5071261;28;20036;-48
2023/05/13 07:38:11;;;;;;;4.55;4.05;;;;;;;;;;5071008;28;20060;-50
2023/05/13 07:40:36;;;;;;;4.80;2.80;;;19.30;99.90;;;;;;5071977;28;20036;-49
2023/05/13 07:43:03;;;;;;;5.78;4.00;;;;;;;;;;5075162;28;20065;-50
2023/05/13 07:45:28;;;;;;;5.47;2.78;;;19.50;99.90;;;;;;5052451;28;20049;-49
2023/05/13 07:47:55;;;;;;;4.35;3.03;;;19.60;99.90;;;;;;5033652;28;20106;-49
2023/05/13 07:50:20;;;;;;;3.97;2.88;;;19.90;99.90;;;;;;5034062;28;20037;-51
2023/05/13 07:52:48;;;;;;;4.95;3.03;;;19.70;99.90;;;;;;5033504;28;20436;-49
2023/05/13 07:55:14;;;;;;;4.15;2.72;;;20.00;99.90;;;;;;5032135;28;20044;-49
2023/05/13 07:57:40;;;;;;;3.90;2.65;;;19.60;99.90;;;;;;5033548;28;20531;-48
2023/05/13 08:00:06;;;;;;;3.85;2.50;;;19.50;99.90;;;;;;5031244;28;20068;-49
2023/05/13 08:02:33;;;;;;;4.45;2.97;;;;;;;;;;5034049;28;20113;-51
2023/05/13 08:05:00;;;;;;;6.00;2.95;;;20.20;99.90;;;;;;5030743;28;20034;-49
2023/05/13 08:07:27;;;;;;;5.18;3.05;;;20.30;99.90;;;;;;5035238;28;20033;-48
2023/05/13 08:09:53;;;;;;;3.88;3.03;;;20.40;99.90;;;;;;5032869;28;20030;-51
2023/05/13 08:12:18;;;;;;;4.57;2.65;;;20.30;99.90;;;;;;5033372;28;20107;-51
2023/05/13 08:14:44;;;;;;;4.30;3.35;;;20.50;99.90;;;;;;5032651;28;20037;-51
2023/05/13 08:17:10;;;;;;;4.38;2.95;;;;;;;;;;4999820;28;20054;-50
2023/05/13 08:19:37;;;;;;;4.20;2.58;;;21.10;99.90;;;;;;5033490;28;20489;-48
2023/05/13 08:22:03;;;;;;;4.68;2.95;;;;;;;;;;5033681;28;20072;-47
2023/05/13 08:24:29;;;;;;;3.70;2.65;;;;;;;;;;5032442;28;20065;-48
2023/05/13 08:26:55;;;;;;;3.33;2.58;;;22.00;99.90;;;;;;5026840;28;20091;-48
2023/05/13 08:29:21;;;;;;;3.40;2.40;;;21.70;99.90;;;;;;5032607;28;20030;-48
2023/05/13 08:31:46;;;;;;;3.70;2.20;;;21.80;99.90;;;;;;5034124;28;20489;-47
2023/05/13 08:34:12;;;;;;;2.97;2.35;;;;;;;;;;5034506;28;20370;-48
2023/05/13 08:36:38;;;;;;;3.10;2.15;;;21.70;99.90;;;;;;5032671;28;20086;-48
2023/05/13 08:39:04;;;;;;;3.03;1.95;;;21.90;99.90;;;;;;5029234;28;20116;-48
2023/05/13 08:41:30;;;;;;;3.13;2.25;;;21.80;99.90;;;;;;5028326;28;20099;-53
2023/05/13 08:43:58;;;;;;;3.17;1.92;;;21.70;99.90;;;;;;5028390;28;20034;-50
2023/05/13 08:46:27;;;;;;;2.08;1.42;;;21.70;99.90;;;;;;5055964;28;20139;-50
2023/05/13 08:48:55;;;;;;;2.97;1.88;;;21.80;99.90;;;;;;5071891;28;20157;-50
2023/05/13 08:51:21;;;;;;;3.67;1.95;;;22.00;99.90;;;;;;5029184;28;20033;-51
2023/05/13 08:53:47;;;;;;;1.95;1.60;;;22.00;99.90;;;;;;5022492;28;20049;-50
2023/05/13 08:56:13;;;;;;;3.88;1.80;;;21.60;99.90;;;;;;5022466;28;20081;-48
2023/05/13 08:58:38;;;;;;;2.70;1.88;;;21.50;99.90;;;;;;5023103;28;20500;-51
2023/05/13 09:01:06;;;;;;;2.45;1.85;;;22.00;99.90;;;;;;5028424;28;20389;-52
2023/05/13 09:03:33;;;;;;;2.30;1.80;;;22.20;99.90;;;;;;5020864;28;20026;-54
2023/05/13 09:06:01;;;;;;;2.17;1.77;;;;;;;;;;4993306;28;20156;-52
2023/05/13 09:08:26;;;;;;;2.53;1.90;;;22.60;99.90;;;;;;5011988;28;20385;-51
2023/05/13 09:10:52;;;;;;;2.05;1.75;;;22.60;99.90;;;;;;5025895;28;20075;-51
2023/05/13 09:13:18;;;;;;;3.28;2.10;;;22.60;99.90;;;;;;5024081;28;20037;-52
2023/05/13 09:15:44;;;;;;;2.78;2.10;;;23.00;99.90;;;;;;5019514;28;20053;-51
2023/05/13 09:18:11;;;;;;;3.03;2.08;;;;;;;;;;5030958;28;20025;-52
2023/05/13 09:20:37;;;;;;;2.15;1.45;;;;;;;;;;5016897;28;20026;-53
2023/05/13 09:23:05;;;;;;;2.50;1.67;;;;;;;;;;5062950;28;20128;-54
2023/05/13 09:25:31;;;;;;;3.85;2.17;;;23.40;99.90;;;;;;5069252;28;20123;-54
2023/05/13 09:28:00;;;;;;;2.65;2.08;;;23.60;99.90;;;;;;5054921;28;20123;-52
2023/05/13 09:30:27;;;;;;;3.83;2.13;;;;;;;;;;4999973;28;20041;-52
2023/05/13 09:33:05;;;;;;;3.50;1.80;;;;;;;;;;5073384;28;20496;-51
2023/05/13 09:35:31;;;;;;;3.38;1.73;;;23.80;99.90;;;;;;5067335;28;20040;-55
2023/05/13 09:37:57;;;;;;;2.75;2.00;;;23.50;99.90;;;;;;5069060;28;20035;-51
2023/05/13 09:40:24;;;;;;;2.92;1.48;;;;;;;;;;5072115;28;20029;-55
2023/05/13 09:42:49;;;;;;;1.55;1.20;;;24.10;99.90;;;;;;5072018;28;20031;-52
2023/05/13 09:45:16;;;;;;;3.35;2.08;;;23.60;99.90;;;;;;5073572;28;20056;-51
2023/05/13 09:47:42;;;;;;;1.80;1.52;;;23.60;99.90;;;;;;5067538;28;20032;-53
2023/05/13 09:50:10;;;;;;;1.75;1.30;;;23.40;99.90;;;;;;5070014;28;20494;-52
2023/05/13 09:52:37;;;;;;;2.10;1.38;;;23.90;99.90;;;;;;5073518;28;20476;-55
2023/05/13 09:55:07;;;;;;;1.17;1.00;;;23.90;99.90;;;;;;5068625;28;20029;-53
2023/05/13 09:57:33;;;;;;;1.10;1.00;;;23.80;99.90;;;;;;5030025;28;20455;-51
2023/05/13 10:00:07;;;;;;;1.45;1.20;;;23.70;99.90;;;;;;5069387;28;20085;-52
2023/05/13 10:02:34;;;;;;;1.27;1.10;;;24.10;99.90;;;;;;5035046;28;20115;-53
2023/05/13 10:05:01;;;;;;;2.22;0.95;;;24.30;99.10;;;;;;5048913;28;20372;-54
2023/05/13 10:07:27;;;;;;;1.55;0.98;;;;;;;;;;5070219;28;20505;-51
2023/05/13 10:09:56;;;;;;;3.05;1.33;;;;;;;;;;5070812;28;20234;-52
2023/05/13 10:12:24;;;;;;;1.42;0.98;;;;;;;;;;5070432;28;20029;-52
2023/05/13 10:14:54;;;;;;;2.35;1.58;;;;;;;;;;5070329;28;20081;-51
2023/05/13 10:17:22;;;;;;;1.15;0.90;;;25.70;98.70;;;;;;5071893;28;20048;-52
2023/05/13 10:19:52;;;;;;;2.90;1.00;;;25.70;96.90;;;;;;5053982;28;20507;-54
2023/05/13 10:22:29;;;;;;;1.95;0.98;;;25.00;95.90;;;;;;5071879;28;20020;-55
2023/05/13 10:25:00;;;;;;;2.83;1.10;;;25.70;96.90;;;;;;5073054;28;20043;-52
2023/05/13 10:27:28;;;;;;;1.23;1.10;;;24.90;95.60;;;;;;5067146;28;20353;-54
2023/05/13 10:29:54;;;;;;;1.50;1.30;;;25.10;95.60;;;;;;5071163;28;20465;-55
2023/05/13 10:32:27;;;;;;;1.40;1.10;;;24.70;96.10;;;;;;5068503;28;20052;-53
2023/05/13 10:35:01;;;;;;;3.47;1.70;;;24.60;96.50;;;;;;5071218;28;20025;-54
2023/05/13 10:37:46;;;;;;;1.33;0.95;;;24.60;96.10;;;;;;5070839;28;20047;-54
2023/05/13 10:40:38;;;;;;;1.88;1.02;;;24.70;95.60;;;;;;5069677;28;20033;-54
2023/05/13 10:43:25;;;;;;;2.22;1.42;;;25.10;94.80;;;;;;5051817;28;20033;-52
2023/05/13 10:46:00;;;;;;;2.38;1.23;;;25.50;96.00;;;;;;5071663;28;20124;-55
2023/05/13 10:48:26;;;;;;;2.25;1.20;;;25.60;94.90;;;;;;5068751;28;20036;-52
2023/05/13 10:50:59;;;;;;;4.40;1.20;;;26.20;96.10;;;;;;5013774;28;20048;-53
2023/05/13 10:53:28;;;;;;;1.85;1.20;;;;;;;;;;5052470;28;20485;-55
2023/05/13 10:55:56;;;;;;;1.83;1.10;;;26.10;94.60;;;;;;5054942;28;20044;-53
2023/05/13 10:58:28;;;;;;;1.50;1.10;;;25.90;94.20;;;;;;5034568;28;20087;-53
2023/05/13 11:01:15;;;;;;;2.30;1.00;;;25.80;93.00;;;;;;5017414;28;20435;-52
2023/05/13 11:03:49;;;;;;;1.85;0.80;;;26.10;92.60;;;;;;5049610;28;20033;-51
2023/05/13 11:06:17;;;;;;;1.25;1.05;;;;;;;;;;5049987;28;20046;-48
2023/05/13 11:08:45;;;;;;;1.80;1.02;;;26.50;94.50;;;;;;5051853;28;20526;-54
2023/05/13 11:11:21;;;;;;;2.00;1.30;;;;;;;;;;5054474;28;20048;-53
2023/05/13 11:13:51;;;;;;;5.10;2.00;;;26.80;92.00;;;;;;5051124;28;20033;-50
2023/05/13 11:16:17;;;;;;;4.05;2.35;;;26.80;92.10;;;;;;5049361;28;20056;-50
2023/05/13 11:18:43;;;;;;;2.63;1.50;;;26.60;92.00;;;;;;5049465;28;20041;-52
2023/05/13 11:21:09;;;;;;;1.27;0.90;;;27.20;92.20;;;;;;5048354;28;20097;-48
2023/05/13 11:24:02;;;;;;;2.00;0.90;;;26.40;97.90;;;;;;5067092;28;20551;-50
2023/05/13 11:27:08;;;;;;;1.35;1.02;;;26.60;99.90;;;;;;5067873;28;20372;-48
2023/05/13 11:29:36;;;;;;;3.75;1.40;;;26.50;99.90;;;;;;5063973;28;20039;-52
2023/05/13 11:32:03;;;;;;;1.77;0.90;;;26.30;99.90;;;;;;5070461;28;20033;-49
2023/05/13 11:34:30;;;;;;;3.03;1.20;;;26.60;99.90;;;;;;5013145;28;20039;-51
2023/05/13 11:37:02;;;;;;;1.33;1.10;;;26.30;99.90;;;;;;5068247;28;20024;-52
2023/05/13 11:39:28;;;;;;;1.95;1.30;;;26.30;99.90;;;;;;5069359;28;20034;-52
2023/05/13 11:41:56;;;;;;;1.75;1.30;;;26.40;99.90;;;;;;5045344;28;20087;-53
2023/05/13 11:44:23;;;;;;;1.15;1.05;;;26.40;99.90;;;;;;5065067;28;20044;-51
2023/05/13 11:47:00;;;;;;;1.30;1.20;;;26.40;99.90;;;;;;5071781;28;20044;-50
2023/05/13 11:49:35;;;;;;;2.63;1.45;;;26.40;99.90;;;;;;5068411;28;20113;-53
2023/05/13 11:52:08;;;;;;;2.47;1.30;;;26.20;99.90;;;;;;5067962;28;20040;-55
2023/05/13 11:54:47;;;;;;;1.30;1.02;;;26.30;99.90;;;;;;5067694;28;20082;-49
2023/05/13 11:57:19;;;;;;;1.90;1.30;;;26.20;99.90;;;;;;5069540;28;20055;-48
2023/05/13 11:59:52;;;;;;;1.50;0.95;;;;;;;;;;5069172;28;20063;-52
2023/05/13 12:02:44;;;;;;;4.00;1.27;;;25.60;99.90;;;;;;5067652;28;20395;-51
2023/05/13 12:05:12;;;;;;;1.73;1.38;;;25.20;91.40;;;;;;5066456;28;20368;-52
2023/05/13 12:07:38;;;;;;;1.67;1.13;;;25.10;91.80;;;;;;5066637;28;20025;-51
2023/05/13 12:10:06;;;;;;;0.77;0.77;;;24.90;91.70;;;;;;5051568;28;20095;-51
2023/05/13 12:12:36;;;;;;;1.25;0.98;;;25.10;91.80;;;;;;5064294;28;20048;-51
2023/05/13 12:15:16;;;;;;;1.45;1.08;;;24.90;92.20;;;;;;5032886;28;20037;-52
2023/05/13 12:17:43;;;;;;;1.65;1.25;;;25.10;92.50;;;;;;5062844;28;20040;-51
2023/05/13 12:20:22;;;;;;;1.92;1.08;;;25.20;92.50;;;;;;5070032;28;20032;-51
2023/05/13 12:22:47;;;;;;;1.42;0.93;;;25.40;92.40;;;;;;5079539;28;20048;-50
2023/05/13 12:25:31;;;;;;;1.42;0.80;;;24.90;91.20;;;;;;5055953;28;20037;-49
2023/05/13 12:28:12;;;;;;;1.10;0.82;;;24.20;91.50;;;;;;5069492;28;20048;-50
2023/05/13 12:30:40;;;;;;;1.52;0.73;;;23.90;91.30;;;;;;5074631;28;20059;-49
2023/05/13 12:33:15;;;;;;;0.70;0.70;;;23.90;92.30;;;;;;5081483;28;20074;-49
2023/05/13 12:35:42;;;;;;;2.50;0.80;;;24.00;92.40;;;;;;5066484;28;20043;-49
2023/05/13 12:38:16;;;;;;;1.17;0.90;;;24.10;92.20;;;;;;5065636;28;20045;-48
2023/05/13 12:40:47;;;;;;;0.65;0.65;;;24.20;92.00;;;;;;5035211;28;20032;-49
2023/05/13 12:43:14;;;;;;;1.88;1.13;;;23.70;91.20;;;;;;5069381;28;20165;-49
2023/05/13 12:45:42;;;;;;;1.88;0.60;;;23.60;91.60;;;;;;5071745;28;20053;-49
2023/05/13 12:48:08;;;;;;;1.42;1.05;;;23.70;91.70;;;;;;5056222;28;20404;-52
2023/05/13 12:50:34;;;;;;;2.60;1.10;;;23.60;92.60;;;;;;5071000;28;20046;-52
2023/05/13 12:53:00;;;;;;;1.33;0.70;;;23.60;93.30;;;;;;5059356;28;20178;-51
2023/05/13 12:55:26;;;;;;;1.40;0.90;;;23.40;93.30;;;;;;5054421;28;20166;-51
2023/05/13 12:58:02;;;;;;;1.40;0.93;;;23.30;94.50;;;;;;5071476;28;20041;-51
2023/05/13 13:00:29;;;;;;;1.52;1.10;;;23.10;96.60;;;;;;5071164;28;20028;-49
2023/05/13 13:02:55;;;;;;;2.75;1.20;;;22.60;99.90;;;;;;5072431;28;20111;-49